createdAt,value
2023-05-26T00:04:00.396Z,11.87
2023-05-26T00:08:03.470Z,11.40
2023-05-26T00:12:03.865Z,16.67
2023-05-26T00:16:04.708Z,12.67
2023-05-26T00:20:05.697Z,14.37
2023-05-26T00:24:09.938Z,11.30
2023-05-26T00:28:10.250Z,17.67
2023-05-26T00:32:10.996Z,12.43
2023-05-26T00:36:12.137Z,13.90
2023-05-26T00:40:16.728Z,12.40
2023-05-26T00:44:17.030Z,13.90
2023-05-26T00:48:17.337Z,14.13
2023-05-26T00:52:17.902Z,11.03
2023-05-26T00:56:21.320Z,12.13
2023-05-26T01:00:24.073Z,12.30
2023-05-26T01:04:25.495Z,13.33
2023-05-26T01:08:26.035Z,13.30
2023-05-26T01:12:39.099Z,12.00
2023-05-26T01:16:52.623Z,13.67
2023-05-26T01:21:08.900Z,12.57
2023-05-26T01:25:27.330Z,14.57
2023-05-26T01:29:33.000Z,12.33
2023-05-26T01:33:34.744Z,14.57
2023-05-26T01:37:35.163Z,13.30
2023-05-26T01:41:44.929Z,13.77
2023-05-26T01:45:56.363Z,14.77
2023-05-26T01:50:02.518Z,13.77
2023-05-26T01:54:06.263Z,14.87
2023-05-26T01:58:07.710Z,12.37
2023-05-26T02:02:12.404Z,16.60
2023-05-26T02:06:13.496Z,12.47
2023-05-26T02:10:14.630Z,20.53
2023-05-26T02:14:14.961Z,16.60
2023-05-26T02:18:17.926Z,19.97
2023-05-26T02:22:18.401Z,18.77
2023-05-26T02:26:20.770Z,15.53
2023-05-26T02:30:21.278Z,15.23
2023-05-26T02:34:24.109Z,13.93
2023-05-26T02:38:24.395Z,11.50
2023-05-26T02:42:24.716Z,14.90
2023-05-26T02:46:27.140Z,11.47
2023-05-26T02:50:30.201Z,13.57
2023-05-26T02:54:30.521Z,11.17
2023-05-26T02:58:31.665Z,13.80
2023-05-26T03:02:32.458Z,15.90
2023-05-26T03:06:37.859Z,17.30
2023-05-26T03:10:40.598Z,13.80
2023-05-26T03:14:41.616Z,12.53
2023-05-26T03:18:42.842Z,13.93
2023-05-26T03:22:52.967Z,14.80
2023-05-26T03:26:56.258Z,13.33
2023-05-26T03:30:57.568Z,12.13
2023-05-26T03:34:59.621Z,17.97
2023-05-26T03:39:02.849Z,12.73
2023-05-26T03:43:03.744Z,13.90
2023-05-26T03:47:12.997Z,11.90
2023-05-26T03:51:13.881Z,14.30
2023-05-26T03:55:19.127Z,13.97
2023-05-26T03:59:19.484Z,14.20
2023-05-26T04:03:21.328Z,15.73
2023-05-26T04:07:22.101Z,14.87
2023-05-26T04:11:26.502Z,18.10
2023-05-26T04:15:26.821Z,15.90
2023-05-26T04:19:30.515Z,12.03
2023-05-26T04:23:31.116Z,14.20
2023-05-26T04:27:36.819Z,12.27
2023-05-26T04:32:17.453Z,14.10
2023-05-26T04:36:34.297Z,12.07
2023-05-26T04:40:36.997Z,11.63
2023-05-26T04:44:41.830Z,13.43
2023-05-26T04:48:43.180Z,14.93
2023-05-26T04:52:43.687Z,18.67
2023-05-26T04:56:43.993Z,13.40
2023-05-26T05:00:47.182Z,16.90
2023-05-26T05:05:05.528Z,12.63
2023-05-26T05:09:06.679Z,16.23
2023-05-26T05:13:07.410Z,18.03
2023-05-26T05:17:10.664Z,15.20
2023-05-26T05:21:11.256Z,15.13
2023-05-26T05:25:13.018Z,13.50
2023-05-26T05:29:13.425Z,15.90
2023-05-26T05:33:21.485Z,16.90
2023-05-26T05:37:21.807Z,11.23
2023-05-26T05:41:22.709Z,12.67
2023-05-26T05:45:24.558Z,14.37
2023-05-26T05:49:59.508Z,13.90
2023-05-26T05:54:00.073Z,13.43
2023-05-26T05:58:01.966Z,13.23
2023-05-26T06:02:02.490Z,19.27
2023-05-26T06:06:06.826Z,14.97
2023-05-26T06:10:08.917Z,14.90
2023-05-26T06:14:09.263Z,13.07
2023-05-26T06:18:11.663Z,12.33
2023-05-26T06:22:14.673Z,14.93
2023-05-26T06:26:14.941Z,15.13
2023-05-26T06:30:17.135Z,13.20
2023-05-26T06:34:21.640Z,12.47
2023-05-26T06:38:25.323Z,11.83
2023-05-26T06:42:28.779Z,9.40
2023-05-26T06:46:29.094Z,12.03
2023-05-26T06:50:30.643Z,14.80
2023-05-26T06:54:35.579Z,13.17
2023-05-26T06:58:37.404Z,11.90
2023-05-26T07:02:37.903Z,13.38
2023-05-26T07:07:10.690Z,16.35
2023-05-26T07:11:14.229Z,11.48
2023-05-26T07:15:15.097Z,11.48
2023-05-26T07:19:15.631Z,11.35
2023-05-26T07:23:16.003Z,11.80
2023-05-26T07:27:19.039Z,10.18
2023-05-26T07:31:20.245Z,12.73
2023-05-26T07:35:24.962Z,11.23
2023-05-26T07:39:25.446Z,11.73
2023-05-26T07:43:28.418Z,10.77
2023-05-26T07:47:32.580Z,13.75
2023-05-26T07:51:32.957Z,16.73
2023-05-26T07:55:33.823Z,11.73
2023-05-26T07:59:37.193Z,12.32
2023-05-26T08:03:37.980Z,12.07
2023-05-26T08:07:38.586Z,14.52
2023-05-26T08:11:39.842Z,9.93
2023-05-26T08:15:42.844Z,11.90
2023-05-26T08:19:43.862Z,11.50
2023-05-26T08:23:45.223Z,15.45
2023-05-26T08:27:45.904Z,10.20
2023-05-26T08:31:48.947Z,16.55
2023-05-26T08:35:51.210Z,12.20
2023-05-26T08:39:51.988Z,11.07
2023-05-26T08:44:06.174Z,12.75
2023-05-26T08:48:14.506Z,9.65
2023-05-26T08:52:18.160Z,14.90
2023-05-26T08:56:19.467Z,13.95
2023-05-26T09:00:24.149Z,12.35
2023-05-26T09:04:29.085Z,11.55
2023-05-26T09:08:29.940Z,14.02
2023-05-26T09:12:39.159Z,10.88
2023-05-26T09:16:39.537Z,9.13
2023-05-26T09:20:48.224Z,14.32
2023-05-26T09:24:51.218Z,10.43
2023-05-26T09:28:53.883Z,13.68
2023-05-26T09:32:54.219Z,11.98
2023-05-26T09:36:57.725Z,10.05
2023-05-26T09:40:58.460Z,11.38
2023-05-26T09:45:01.101Z,11.27
2023-05-26T09:49:02.888Z,11.90
2023-05-26T09:53:10.624Z,11.80
2023-05-26T09:57:15.809Z,12.18
2023-05-26T10:01:17.521Z,10.13
2023-05-26T10:05:19.738Z,13.55
2023-05-26T10:09:26.819Z,12.48
2023-05-26T10:13:27.693Z,10.82
2023-05-26T10:17:29.884Z,11.90
2023-05-26T10:21:38.157Z,11.38
2023-05-26T10:25:54.349Z,8.18
2023-05-26T10:30:06.432Z,10.00
2023-05-26T10:34:16.460Z,10.77
2023-05-26T10:38:17.413Z,10.38
2023-05-26T10:42:24.672Z,9.00
2023-05-26T10:46:25.303Z,7.72
2023-05-26T10:50:25.784Z,10.25
2023-05-26T10:54:28.813Z,8.10
2023-05-26T10:58:40.387Z,9.07
2023-05-26T11:02:42.966Z,9.70
2023-05-26T11:06:51.719Z,7.15
2023-05-26T11:11:06.749Z,7.35
2023-05-26T11:15:33.544Z,9.68
2023-05-26T11:19:37.684Z,11.48
2023-05-26T11:23:41.672Z,9.35
2023-05-26T11:27:49.804Z,7.15
2023-05-26T11:31:53.833Z,8.85
2023-05-26T11:35:54.637Z,8.10
2023-05-26T11:39:55.141Z,12.52
2023-05-26T11:43:57.838Z,11.43
2023-05-26T11:48:01.064Z,6.95
2023-05-26T11:52:01.439Z,9.07
2023-05-26T11:56:09.676Z,9.18
2023-05-26T12:00:16.206Z,6.97
2023-05-26T12:04:29.716Z,8.57
2023-05-26T12:08:30.512Z,7.65
2023-05-26T12:12:34.339Z,6.82
2023-05-26T12:16:36.969Z,9.00
2023-05-26T12:20:44.794Z,8.10
2023-05-26T12:24:50.018Z,9.38
2023-05-26T12:29:08.024Z,9.80
2023-05-26T12:33:08.943Z,8.13
2023-05-26T12:37:12.951Z,8.90
2023-05-26T12:41:14.415Z,7.00
2023-05-26T12:45:14.786Z,6.65
2023-05-26T12:49:16.689Z,8.38
2023-05-26T12:53:19.565Z,9.77
2023-05-26T12:57:20.194Z,8.30
2023-05-26T13:01:20.507Z,10.02
2023-05-26T13:05:23.028Z,6.32
2023-05-26T13:09:26.195Z,9.27
2023-05-26T13:13:26.564Z,8.25
2023-05-26T13:17:27.357Z,5.60
2023-05-26T13:21:27.945Z,6.15
2023-05-26T13:25:30.977Z,6.63
2023-05-26T13:29:31.404Z,8.35
2023-05-26T13:33:31.695Z,7.53
2023-05-26T13:37:32.651Z,6.05
2023-05-26T13:41:37.384Z,6.28
2023-05-26T13:45:39.593Z,6.93
2023-05-26T13:49:44.345Z,6.32
2023-05-26T13:53:44.685Z,8.10
2023-05-26T13:57:47.746Z,10.93
2023-05-26T14:01:49.149Z,9.77
2023-05-26T14:05:49.689Z,8.52
2023-05-26T14:09:50.177Z,7.75
2023-05-26T14:13:53.080Z,10.68
2023-05-26T14:22:09.213Z,7.53
2023-05-26T14:26:18.881Z,6.93
2023-05-26T14:30:25.452Z,7.10
2023-05-26T14:34:25.814Z,7.75
2023-05-26T14:38:26.510Z,7.45
2023-05-26T14:42:26.867Z,7.55
2023-05-26T14:46:30.105Z,9.15
2023-05-26T14:50:30.430Z,12.90
2023-05-26T14:54:30.686Z,9.15
2023-05-26T14:58:30.959Z,9.48
2023-05-26T15:02:34.178Z,7.72
2023-05-26T15:06:37.670Z,8.48
2023-05-26T15:10:38.039Z,8.75
2023-05-26T15:14:38.517Z,8.40
2023-05-26T15:18:41.400Z,9.48
2023-05-26T15:22:42.649Z,8.38
2023-05-26T15:26:42.959Z,8.05
2023-05-26T15:30:43.369Z,11.82
2023-05-26T15:34:46.151Z,8.75
2023-05-26T15:38:46.395Z,9.45
2023-05-26T15:42:47.062Z,9.15
2023-05-26T15:46:47.534Z,10.02
2023-05-26T15:50:51.491Z,10.15
2023-05-26T15:54:51.726Z,7.50
2023-05-26T15:58:53.069Z,7.38
2023-05-26T16:02:53.459Z,7.10
2023-05-26T16:06:56.290Z,9.02
2023-05-26T16:10:56.660Z,8.00
2023-05-26T16:14:57.337Z,9.77
2023-05-26T16:18:57.739Z,8.50
2023-05-26T16:23:00.923Z,9.10
2023-05-26T16:27:01.995Z,10.45
2023-05-26T16:31:02.489Z,11.95
2023-05-26T16:35:05.869Z,7.65
2023-05-26T16:39:08.828Z,9.98
2023-05-26T16:43:11.606Z,11.20
2023-05-26T16:47:12.075Z,10.40
2023-05-26T16:51:12.522Z,11.00
2023-05-26T16:55:16.011Z,10.52
2023-05-26T16:59:16.549Z,11.48
2023-05-26T17:03:17.343Z,10.52
2023-05-26T17:07:17.859Z,10.35
2023-05-26T17:11:20.886Z,10.77
2023-05-26T17:15:21.580Z,11.95
2023-05-26T17:19:22.708Z,11.43
2023-05-26T17:23:23.012Z,15.73
2023-05-26T17:27:26.568Z,10.90
2023-05-26T17:31:26.837Z,11.38
2023-05-26T17:35:31.571Z,12.60
2023-05-26T17:39:36.411Z,9.40
2023-05-26T17:43:39.895Z,11.70
2023-05-26T17:47:42.216Z,8.60
2023-05-26T17:51:43.249Z,9.77
2023-05-26T17:55:44.150Z,8.73
2023-05-26T17:59:53.527Z,12.32
2023-05-26T18:03:54.193Z,8.70
2023-05-26T18:07:55.381Z,10.18
2023-05-26T18:11:59.672Z,9.25
2023-05-26T18:16:05.494Z,10.07
2023-05-26T18:20:06.962Z,11.30
2023-05-26T18:24:13.569Z,12.88
2023-05-26T18:28:15.849Z,13.45
2023-05-26T18:32:21.419Z,14.88
2023-05-26T18:36:22.101Z,13.82
2023-05-26T18:44:50.353Z,9.25
2023-05-26T18:48:54.007Z,10.13
2023-05-26T18:52:57.769Z,9.32
2023-05-26T18:56:58.860Z,17.85
2023-05-26T19:00:59.506Z,8.80
2023-05-26T19:05:02.895Z,10.80
2023-05-26T19:09:03.369Z,9.68
2023-05-26T19:13:04.133Z,11.35
2023-05-26T19:17:04.713Z,6.25
2023-05-26T19:21:08.329Z,9.50
2023-05-26T19:25:11.619Z,13.85
2023-05-26T19:29:12.977Z,9.77
2023-05-26T19:33:14.730Z,11.95
2023-05-26T19:37:20.671Z,15.93
2023-05-26T19:41:22.135Z,10.27
2023-05-26T19:45:24.172Z,10.55
2023-05-26T19:49:27.429Z,14.02
2023-05-26T19:53:30.917Z,9.30
2023-05-26T19:57:34.610Z,11.07
2023-05-26T20:01:35.654Z,11.10
2023-05-26T20:05:38.907Z,11.20
2023-05-26T20:09:44.250Z,10.38
2023-05-26T20:13:45.681Z,11.55
2023-05-26T20:17:46.252Z,13.50
2023-05-26T20:21:49.630Z,9.90
2023-05-26T20:25:53.010Z,14.03
2023-05-26T20:29:53.276Z,14.50
2023-05-26T20:33:53.835Z,9.68
2023-05-26T20:37:54.267Z,12.57
2023-05-26T20:41:57.470Z,13.52
2023-05-26T20:45:57.864Z,12.70
2023-05-26T20:49:58.291Z,11.83
2023-05-26T20:53:58.795Z,12.97
2023-05-26T20:58:01.734Z,11.90
2023-05-26T21:02:02.224Z,17.43
2023-05-26T21:06:03.287Z,13.87
2023-05-26T21:10:03.942Z,13.27
2023-05-26T21:14:08.427Z,15.37
2023-05-26T21:18:10.438Z,15.33
2023-05-26T21:22:10.834Z,13.13
2023-05-26T21:26:11.109Z,15.77
2023-05-26T21:30:20.506Z,12.40
2023-05-26T21:34:21.219Z,17.10
2023-05-26T21:38:21.740Z,14.67
2023-05-26T21:42:22.051Z,15.10
2023-05-26T21:46:24.909Z,13.10
2023-05-26T21:50:25.512Z,13.50
2023-05-26T21:54:26.061Z,17.60
2023-05-26T21:58:27.135Z,20.70
2023-05-26T22:02:30.310Z,15.37
2023-05-26T22:06:32.753Z,14.37
2023-05-26T22:10:33.535Z,13.20
2023-05-26T22:14:33.770Z,12.97
2023-05-26T22:18:38.947Z,11.60
2023-05-26T22:22:39.797Z,15.83
2023-05-26T22:26:40.134Z,18.17
2023-05-26T22:30:40.503Z,20.80
2023-05-26T22:34:43.703Z,12.57
2023-05-26T22:38:44.550Z,16.73
2023-05-26T22:42:45.028Z,14.33
2023-05-26T22:46:45.371Z,14.93
2023-05-26T22:50:48.900Z,16.10
2023-05-26T22:54:49.284Z,12.40
2023-05-26T22:58:51.956Z,12.20
2023-05-26T23:02:52.568Z,13.30
2023-05-26T23:06:55.809Z,13.77
2023-05-26T23:10:56.099Z,15.03
2023-05-26T23:14:56.538Z,19.97
2023-05-26T23:18:57.113Z,13.60
2023-05-26T23:23:00.256Z,14.83
2023-05-26T23:27:00.949Z,13.40
2023-05-26T23:31:01.237Z,17.77
2023-05-26T23:35:01.624Z,13.60
2023-05-26T23:39:05.046Z,17.67
2023-05-26T23:43:05.612Z,10.57
2023-05-26T23:47:07.749Z,14.97
2023-05-26T23:51:09.357Z,16.43
2023-05-26T23:55:14.027Z,12.17
2023-05-26T23:59:14.360Z,13.37
